createdAt,value
2018-12-21T00:04:22.468Z,30.55
2018-12-21T00:06:54.812Z,27.98
2018-12-21T00:09:24.886Z,32.00
2018-12-21T00:11:57.558Z,36.28
2018-12-21T00:14:29.171Z,30.55
2018-12-21T00:16:59.356Z,32.45
2018-12-21T00:19:34.102Z,32.88
2018-12-21T00:22:08.162Z,32.98
2018-12-21T00:24:42.591Z,29.07
2018-12-21T00:27:14.475Z,32.67
2018-12-21T00:29:59.447Z,30.75
2018-12-21T00:32:46.228Z,35.20
2018-12-21T00:35:36.775Z,29.35
2018-12-21T00:38:16.872Z,31.15
2018-12-21T00:46:53.975Z,29.87
2018-12-21T00:49:29.621Z,34.10
2018-12-21T00:52:17.943Z,34.90
2018-12-21T00:54:54.856Z,32.67
2018-12-21T00:57:23.919Z,29.40
2018-12-21T00:59:52.717Z,33.78
2018-12-21T01:02:34.862Z,37.40
2018-12-21T01:05:07.355Z,33.13
2018-12-21T01:10:54.202Z,31.37
2018-12-21T01:13:22.805Z,39.33
2018-12-21T01:19:13.179Z,31.55
2018-12-21T01:24:55.206Z,31.95
2018-12-21T01:27:37.007Z,33.78
2018-12-21T01:39:05.911Z,31.93
2018-12-21T01:41:56.381Z,32.70
2018-12-21T01:44:29.065Z,36.50
2018-12-21T01:47:10.149Z,34.05
2018-12-21T01:49:47.563Z,29.12
2018-12-21T01:52:26.480Z,29.92
2018-12-21T01:55:03.117Z,32.05
2018-12-21T01:57:48.624Z,32.13
2018-12-21T02:00:31.537Z,29.18
2018-12-21T02:06:06.498Z,32.28
2018-12-21T02:08:43.551Z,30.23
2018-12-21T02:14:18.033Z,32.33
2018-12-21T02:16:56.373Z,29.42
2018-12-21T02:19:45.501Z,31.40
2018-12-21T02:25:30.395Z,31.80
2018-12-21T02:28:14.706Z,30.40
2018-12-21T02:30:44.355Z,32.23
2018-12-21T02:33:12.990Z,31.45
2018-12-21T02:35:41.731Z,28.10
2018-12-21T02:38:10.669Z,29.30
2018-12-21T02:40:39.350Z,39.48
2018-12-21T02:43:08.152Z,32.55
2018-12-21T02:45:37.000Z,30.77
2018-12-21T02:48:05.901Z,28.50
2018-12-21T02:50:34.887Z,28.23
2018-12-21T02:53:03.356Z,35.60
2018-12-21T02:55:31.816Z,30.60
2018-12-21T02:58:00.340Z,29.72
2018-12-21T03:00:29.100Z,34.92
2018-12-21T03:02:58.286Z,30.23
2018-12-21T03:05:26.936Z,27.32
2018-12-21T03:07:55.398Z,28.62
2018-12-21T03:10:23.651Z,31.10
2018-12-21T03:12:51.955Z,28.10
2018-12-21T03:18:20.721Z,30.62
2018-12-21T03:21:12.034Z,26.02
2018-12-21T03:26:36.403Z,27.17
2018-12-21T03:29:05.415Z,26.95
2018-12-21T03:31:33.815Z,28.47
2018-12-21T03:34:02.263Z,24.23
2018-12-21T03:36:43.301Z,26.10
2018-12-21T03:39:12.146Z,24.85
2018-12-21T03:41:40.772Z,26.87
2018-12-21T03:44:19.222Z,23.85
2018-12-21T03:46:48.059Z,28.92
2018-12-21T03:49:16.660Z,25.15
2018-12-21T03:51:45.023Z,26.82
2018-12-21T03:54:13.298Z,24.37
2018-12-21T03:56:41.663Z,26.68
2018-12-21T03:59:10.323Z,26.23
2018-12-21T04:01:39.059Z,25.85
2018-12-21T04:04:07.831Z,22.82
2018-12-21T04:06:37.271Z,27.87
2018-12-21T04:09:09.824Z,27.13
2018-12-21T04:11:38.631Z,27.22
2018-12-21T04:14:07.731Z,22.62
2018-12-21T04:16:36.425Z,27.93
2018-12-21T04:19:04.965Z,30.02
2018-12-21T04:21:33.715Z,23.60
2018-12-21T04:24:02.130Z,29.55
2018-12-21T04:26:31.113Z,27.65
2018-12-21T04:31:58.696Z,20.00
2018-12-21T04:34:27.488Z,24.30
2018-12-21T04:37:01.655Z,25.95
2018-12-21T04:39:36.284Z,21.62
2018-12-21T04:42:09.011Z,22.50
2018-12-21T04:44:44.919Z,26.05
2018-12-21T04:47:25.357Z,22.32
2018-12-21T04:49:59.535Z,22.13
2018-12-21T04:52:42.919Z,22.58
2018-12-21T04:55:10.973Z,22.95
2018-12-21T05:03:39.099Z,25.90
2018-12-21T05:06:08.113Z,22.95
2018-12-21T05:08:36.827Z,23.90
2018-12-21T05:11:05.414Z,22.25
2018-12-21T05:16:42.463Z,22.67
2018-12-21T05:19:29.627Z,19.17
2018-12-21T05:21:58.168Z,20.60
2018-12-21T05:27:22.487Z,16.23
2018-12-21T05:29:57.691Z,16.80
2018-12-21T05:32:33.549Z,17.02
2018-12-21T05:35:02.558Z,18.32
2018-12-21T05:37:31.459Z,16.05
2018-12-21T05:40:00.500Z,18.37
2018-12-21T05:42:29.084Z,17.62
2018-12-21T05:44:57.826Z,19.40
2018-12-21T05:47:26.688Z,18.35
2018-12-21T05:49:55.118Z,13.98
2018-12-21T05:52:23.564Z,14.20
2018-12-21T05:54:51.769Z,14.70
2018-12-21T05:57:20.044Z,15.45
2018-12-21T05:59:48.758Z,11.70
2018-12-21T06:02:17.153Z,15.80
2018-12-21T06:04:45.357Z,11.45
2018-12-21T06:07:13.561Z,14.18
2018-12-21T06:09:41.770Z,10.00
2018-12-21T06:12:15.902Z,13.55
2018-12-21T06:14:54.166Z,8.53
2018-12-21T06:17:26.127Z,9.45
2018-12-21T06:19:54.515Z,11.80
2018-12-21T06:22:22.798Z,12.20
2018-12-21T06:24:52.768Z,9.05
2018-12-21T06:27:30.757Z,8.85
2018-12-21T06:30:07.479Z,13.25
2018-12-21T06:32:45.618Z,14.43
2018-12-21T06:35:22.879Z,10.85
2018-12-21T06:37:57.357Z,8.83
2018-12-21T06:40:31.842Z,8.98
2018-12-21T06:43:03.758Z,10.08
2018-12-21T06:45:51.518Z,8.80
2018-12-21T06:51:03.943Z,9.60
2018-12-21T06:53:36.605Z,9.15
2018-12-21T06:56:11.016Z,19.17
2018-12-21T06:58:43.126Z,9.85
2018-12-21T07:01:15.392Z,10.10
2018-12-21T07:03:50.707Z,15.13
2018-12-21T07:06:31.077Z,11.63
2018-12-21T07:09:06.497Z,11.57
2018-12-21T07:11:40.369Z,10.00
2018-12-21T07:14:14.406Z,17.05
2018-12-21T07:16:50.954Z,9.60
2018-12-21T07:19:31.123Z,10.13
2018-12-21T07:22:08.228Z,10.58
2018-12-21T07:24:49.477Z,8.30
2018-12-21T07:27:36.795Z,10.90
2018-12-21T07:30:14.235Z,14.78
2018-12-21T07:32:50.302Z,7.35
2018-12-21T07:35:30.684Z,12.35
2018-12-21T07:38:04.918Z,13.25
2018-12-21T07:40:45.298Z,10.03
2018-12-21T07:43:26.602Z,9.90
2018-12-21T07:48:38.308Z,18.87
2018-12-21T07:51:22.739Z,11.28
2018-12-21T07:54:01.527Z,8.30
2018-12-21T07:56:44.352Z,9.33
2018-12-21T07:59:21.675Z,10.18
2018-12-21T08:02:01.653Z,11.70
2018-12-21T08:07:34.245Z,8.20
2018-12-21T08:10:22.574Z,9.68
2018-12-21T08:13:02.303Z,9.70
2018-12-21T08:15:41.111Z,11.10
2018-12-21T08:18:31.319Z,10.68
2018-12-21T08:21:12.190Z,9.65
2018-12-21T08:24:00.729Z,8.40
2018-12-21T08:26:43.144Z,8.15
2018-12-21T08:29:22.092Z,10.45
2018-12-21T08:32:10.765Z,7.72
2018-12-21T08:37:42.916Z,10.08
2018-12-21T08:43:11.922Z,8.45
2018-12-21T08:45:51.018Z,8.55
2018-12-21T08:48:32.217Z,9.40
2018-12-21T08:51:10.726Z,6.70
2018-12-21T08:53:52.361Z,9.10
2018-12-21T08:56:34.448Z,6.50
2018-12-21T09:17:13.644Z,7.95
2018-12-21T09:22:57.438Z,9.70
2018-12-21T09:25:52.247Z,6.37
2018-12-21T09:38:12.858Z,8.13
2018-12-21T09:43:42.384Z,10.53
2018-12-21T09:46:22.851Z,5.62
2018-12-21T09:55:11.719Z,10.32
2018-12-21T09:57:52.686Z,9.35
2018-12-21T10:00:31.460Z,12.80
2018-12-21T10:03:10.568Z,9.85
2018-12-21T10:05:49.598Z,11.30
2018-12-21T10:08:29.112Z,8.88
2018-12-21T10:11:11.960Z,5.92
2018-12-21T10:13:51.976Z,9.30
2018-12-21T10:16:33.540Z,7.40
2018-12-21T10:19:14.305Z,6.28
2018-12-21T10:21:52.722Z,12.73
2018-12-21T10:24:33.191Z,8.63
2018-12-21T10:27:11.727Z,6.67
2018-12-21T10:29:53.318Z,6.87
2018-12-21T10:32:32.368Z,9.00
2018-12-21T10:35:13.006Z,6.85
2018-12-21T10:37:52.663Z,6.33
2018-12-21T10:43:26.940Z,9.03
2018-12-21T10:46:08.109Z,13.38
2018-12-21T10:48:42.990Z,15.78
2018-12-21T10:51:16.897Z,11.90
2018-12-21T10:54:01.365Z,8.98
2018-12-21T10:56:42.489Z,6.30
2018-12-21T10:59:23.115Z,6.08
2018-12-21T11:02:01.159Z,6.22
2018-12-21T11:04:39.441Z,9.93
2018-12-21T11:07:16.193Z,5.92
2018-12-21T11:10:02.882Z,5.37
2018-12-21T11:12:39.708Z,6.58
2018-12-21T11:15:21.053Z,10.93
2018-12-21T11:18:01.726Z,7.83
2018-12-21T11:20:43.059Z,9.08
2018-12-21T11:23:21.415Z,7.47
2018-12-21T11:25:58.535Z,6.67
2018-12-21T11:28:34.928Z,6.58
2018-12-21T11:31:11.783Z,5.47
2018-12-21T11:33:47.983Z,10.40
2018-12-21T11:36:24.369Z,6.65
2018-12-21T11:39:03.565Z,11.93
2018-12-21T11:41:44.608Z,9.18
2018-12-21T11:47:25.711Z,8.70
2018-12-21T11:50:00.003Z,7.47
2018-12-21T11:52:41.331Z,5.15
2018-12-21T11:55:25.961Z,6.50
2018-12-21T11:58:00.579Z,6.87
2018-12-21T12:00:30.382Z,9.33
2018-12-21T12:03:05.346Z,10.43
2018-12-21T12:05:39.843Z,6.05
2018-12-21T12:08:13.628Z,8.13
2018-12-21T12:10:47.530Z,6.75
2018-12-21T12:13:25.550Z,7.75
2018-12-21T12:19:00.297Z,4.65
2018-12-21T12:21:31.898Z,4.45
2018-12-21T12:24:08.868Z,8.58
2018-12-21T12:26:47.354Z,5.20
2018-12-21T12:29:23.555Z,6.17
2018-12-21T12:31:56.083Z,8.93
2018-12-21T12:34:30.486Z,4.67
2018-12-21T12:37:21.482Z,7.25
2018-12-21T12:43:01.870Z,4.55
2018-12-21T12:45:33.840Z,5.50
2018-12-21T12:48:05.658Z,6.10
2018-12-21T12:50:37.659Z,5.53
2018-12-21T12:53:18.886Z,14.07
2018-12-21T12:55:48.229Z,5.65
2018-12-21T12:58:17.951Z,6.12
2018-12-21T13:00:59.495Z,8.40
2018-12-21T13:03:33.726Z,7.78
2018-12-21T13:06:09.058Z,7.58
2018-12-21T13:08:49.467Z,6.65
2018-12-21T13:11:21.099Z,8.95
2018-12-21T13:13:49.898Z,6.65
2018-12-21T13:16:18.269Z,7.30
2018-12-21T13:18:51.475Z,8.10
2018-12-21T13:21:29.387Z,6.08
2018-12-21T13:23:58.292Z,8.45
2018-12-21T13:29:23.262Z,7.12
2018-12-21T13:31:57.408Z,5.72
2018-12-21T13:37:31.978Z,4.53
2018-12-21T13:40:04.693Z,4.45
2018-12-21T13:42:37.089Z,5.20
2018-12-21T13:45:21.742Z,4.35
2018-12-21T13:48:02.286Z,4.28
2018-12-21T13:50:43.610Z,3.60
2018-12-21T13:53:17.862Z,4.78
2018-12-21T13:55:49.828Z,4.20
2018-12-21T13:58:28.435Z,5.12
2018-12-21T14:01:04.054Z,4.10
2018-12-21T14:03:38.171Z,4.83
2018-12-21T14:06:16.045Z,3.47
2018-12-21T14:08:52.599Z,4.30
2018-12-21T14:11:30.923Z,4.25
2018-12-21T14:14:04.722Z,4.95
2018-12-21T14:16:36.490Z,5.53
2018-12-21T14:19:11.607Z,4.58
2018-12-21T14:21:49.868Z,5.47
2018-12-21T14:24:33.335Z,4.22
2018-12-21T14:27:11.898Z,5.33
2018-12-21T14:29:46.366Z,4.33
2018-12-21T14:32:22.998Z,4.47
2018-12-21T14:34:55.050Z,4.20
2018-12-21T14:37:31.719Z,4.90
2018-12-21T14:40:04.714Z,4.25
2018-12-21T14:42:39.645Z,4.40
2018-12-21T14:45:16.980Z,4.90
2018-12-21T14:48:01.918Z,4.95
2018-12-21T14:50:42.774Z,4.70
2018-12-21T14:53:15.390Z,5.58
2018-12-21T14:55:53.339Z,5.05
2018-12-21T14:58:31.739Z,6.05
2018-12-21T15:01:15.983Z,6.67
2018-12-21T15:03:51.289Z,5.50
2018-12-21T15:06:26.392Z,5.12
2018-12-21T15:09:04.063Z,6.05
2018-12-21T15:11:42.140Z,8.53
2018-12-21T15:14:18.776Z,5.62
2018-12-21T15:16:51.198Z,5.67
2018-12-21T15:19:19.758Z,6.25
2018-12-21T15:24:45.049Z,6.20
2018-12-21T15:30:23.032Z,6.90
2018-12-21T15:32:57.056Z,6.95
2018-12-21T15:35:32.624Z,6.55
2018-12-21T15:38:06.944Z,6.17
2018-12-21T15:40:45.470Z,6.17
2018-12-21T15:43:16.814Z,6.53
2018-12-21T15:45:51.302Z,6.37
2018-12-21T15:48:25.999Z,7.75
2018-12-21T15:51:00.723Z,6.37
2018-12-21T15:53:38.903Z,6.58
2018-12-21T15:56:22.394Z,6.50
2018-12-21T15:58:56.662Z,5.83
2018-12-21T16:01:37.336Z,7.03
2018-12-21T16:04:13.667Z,6.03
2018-12-21T16:06:53.986Z,5.37
2018-12-21T16:09:28.474Z,6.35
2018-12-21T16:11:59.743Z,6.42
2018-12-21T16:14:34.526Z,7.33
2018-12-21T16:17:09.425Z,6.97
2018-12-21T16:19:49.927Z,5.95
2018-12-21T16:22:24.235Z,6.10
2018-12-21T16:25:12.696Z,7.75
2018-12-21T16:27:53.611Z,6.20
2018-12-21T16:30:27.952Z,5.95
2018-12-21T16:33:01.440Z,7.08
2018-12-21T16:35:29.953Z,6.53
2018-12-21T16:38:10.782Z,8.50
2018-12-21T16:40:54.856Z,6.58
2018-12-21T16:43:26.959Z,7.62
2018-12-21T16:46:07.707Z,7.80
2018-12-21T16:48:54.117Z,7.42
2018-12-21T16:51:22.724Z,7.90
2018-12-21T16:53:54.306Z,8.00
2018-12-21T16:56:26.230Z,8.58
2018-12-21T16:59:02.467Z,9.68
2018-12-21T17:01:34.110Z,12.15
2018-12-21T17:04:05.916Z,12.40
2018-12-21T17:06:34.573Z,12.07
2018-12-21T17:11:48.707Z,11.57
2018-12-21T17:14:17.659Z,13.40
2018-12-21T17:16:46.325Z,14.53
2018-12-21T17:19:20.523Z,14.90
2018-12-21T17:21:50.534Z,13.93
2018-12-21T17:24:20.715Z,18.45
2018-12-21T17:26:50.432Z,16.90
2018-12-21T17:29:18.725Z,20.50
2018-12-21T17:31:47.351Z,22.15
2018-12-21T17:34:15.753Z,20.55
2018-12-21T17:39:23.527Z,23.92
2018-12-21T17:41:52.170Z,21.10
2018-12-21T17:44:20.653Z,23.87
2018-12-21T17:47:01.492Z,25.85
2018-12-21T17:49:29.834Z,21.87
2018-12-21T17:52:01.501Z,25.37
2018-12-21T17:54:36.909Z,29.25
2018-12-21T17:57:08.466Z,26.93
2018-12-21T17:59:36.691Z,25.85
2018-12-21T18:02:05.168Z,21.97
2018-12-21T18:04:33.535Z,19.98
2018-12-21T18:07:01.767Z,18.30
2018-12-21T18:09:32.590Z,14.47
2018-12-21T18:12:00.916Z,14.85
2018-12-21T18:14:29.264Z,16.48
2018-12-21T18:19:53.176Z,12.60
2018-12-21T18:25:20.571Z,10.43
2018-12-21T18:27:51.356Z,11.38
2018-12-21T18:30:34.116Z,10.93
2018-12-21T18:33:10.547Z,9.25
2018-12-21T18:35:34.953Z,9.55
2018-12-21T18:38:06.249Z,7.83
2018-12-21T18:40:34.654Z,7.92
2018-12-21T18:43:08.517Z,7.35
2018-12-21T18:45:47.494Z,6.95
2018-12-21T18:48:32.199Z,5.92
2018-12-21T18:51:07.159Z,6.47
2018-12-21T18:53:56.116Z,8.80
2018-12-21T18:56:33.767Z,8.43
2018-12-21T18:59:14.708Z,8.03
2018-12-21T19:01:56.085Z,8.78
2018-12-21T19:04:35.373Z,6.25
2018-12-21T19:07:16.026Z,11.30
2018-12-21T19:09:54.971Z,12.68
2018-12-21T19:12:36.170Z,11.48
2018-12-21T19:15:15.415Z,16.12
2018-12-21T19:24:00.989Z,11.70
2018-12-21T19:26:42.852Z,14.63
2018-12-21T19:29:21.929Z,11.75
2018-12-21T19:35:05.535Z,18.62
2018-12-21T19:37:45.083Z,18.45
2018-12-21T19:40:34.248Z,13.48
2018-12-21T19:46:06.392Z,13.68
2018-12-21T19:48:46.167Z,12.47
2018-12-21T19:51:25.057Z,10.35
2018-12-21T19:57:05.837Z,15.93
2018-12-21T20:12:02.440Z,12.45
2018-12-21T20:20:47.106Z,15.70
2018-12-21T20:23:22.079Z,12.65
2018-12-21T20:26:03.443Z,7.95
2018-12-21T20:28:38.801Z,10.70
2018-12-21T20:31:19.216Z,11.00
2018-12-21T20:33:58.095Z,7.17
2018-12-21T20:36:43.045Z,4.40
2018-12-21T20:39:22.787Z,10.85
2018-12-21T20:42:01.576Z,8.03
2018-12-21T20:44:48.822Z,5.15
2018-12-21T20:50:28.610Z,7.12
2018-12-21T20:53:14.460Z,8.58
2018-12-21T21:27:55.096Z,5.58
2018-12-21T21:30:35.968Z,7.80
2018-12-21T21:33:08.441Z,7.75
2018-12-21T21:35:47.145Z,8.18
2018-12-21T21:41:40.830Z,10.30
2018-12-21T21:44:11.878Z,6.83
2018-12-21T21:50:07.288Z,8.58
2018-12-21T21:52:43.787Z,7.10
2018-12-21T21:55:24.337Z,10.08
2018-12-21T22:01:13.652Z,5.95
2018-12-21T22:04:05.061Z,6.85
2018-12-21T22:12:43.187Z,4.80
2018-12-21T22:15:18.299Z,6.17
2018-12-21T22:17:53.075Z,6.90
2018-12-21T22:20:44.622Z,8.20
2018-12-21T22:23:18.617Z,6.42
2018-12-21T22:26:05.384Z,13.03
2018-12-21T22:28:40.940Z,8.25
2018-12-21T22:34:13.484Z,9.88
2018-12-21T22:36:54.738Z,8.53
2018-12-21T22:39:30.704Z,5.50
2018-12-21T22:42:08.454Z,6.80
2018-12-21T22:50:40.835Z,4.85
2018-12-21T22:59:30.489Z,4.53
2018-12-21T23:02:08.745Z,4.72
2018-12-21T23:04:49.595Z,9.53
2018-12-21T23:07:41.808Z,3.30
2018-12-21T23:10:26.553Z,5.60
2018-12-21T23:12:56.941Z,2.80
2018-12-21T23:15:27.081Z,3.90
2018-12-21T23:21:05.900Z,3.83
2018-12-21T23:26:33.505Z,4.78
2018-12-21T23:29:20.512Z,2.40
2018-12-21T23:31:54.893Z,2.65
2018-12-21T23:34:41.165Z,11.10
2018-12-21T23:37:13.324Z,7.45
2018-12-21T23:39:41.890Z,8.18
2018-12-21T23:45:17.255Z,2.77
2018-12-21T23:47:45.554Z,7.55
2018-12-21T23:50:14.106Z,4.50
2018-12-21T23:52:42.776Z,4.60
2018-12-21T23:55:14.744Z,2.67
2018-12-21T23:57:46.430Z,3.17
